createdAt,value
2022-10-08T00:01:29.045Z,97529.66
2022-10-08T00:04:30.600Z,97531.88
2022-10-08T00:07:32.120Z,97526.97
2022-10-08T00:10:33.665Z,97532.47
2022-10-08T00:13:42.680Z,97524.84
2022-10-08T00:16:44.196Z,97526.13
2022-10-08T00:19:45.667Z,97532.09
2022-10-08T00:22:47.947Z,97528.13
2022-10-08T00:25:49.732Z,97519.53
2022-10-08T00:28:53.642Z,97527.50
2022-10-08T00:31:55.291Z,97521.56
2022-10-08T00:34:57.233Z,97523.22
2022-10-08T00:37:58.872Z,97529.53
2022-10-08T00:41:00.550Z,97528.72
2022-10-08T00:44:03.794Z,97523.31
2022-10-08T00:47:05.706Z,97536.06
2022-10-08T00:50:18.261Z,97523.59
2022-10-08T00:53:21.191Z,97529.97
2022-10-08T00:56:24.220Z,97525.31
2022-10-08T00:59:26.358Z,97530.69
2022-10-08T01:02:27.915Z,97531.59
2022-10-08T01:05:50.063Z,97522.22
2022-10-08T01:08:59.773Z,97519.19
2022-10-08T01:12:28.581Z,97517.34
2022-10-08T01:15:50.396Z,97515.88
2022-10-08T01:19:07.417Z,97514.50
2022-10-08T01:22:20.176Z,97514.31
2022-10-08T01:25:46.960Z,97510.47
2022-10-08T01:28:54.256Z,97501.66
2022-10-08T01:32:04.598Z,97500.78
2022-10-08T01:35:20.317Z,97506.13
2022-10-08T01:38:25.136Z,97498.16
2022-10-08T01:41:29.562Z,97500.19
2022-10-08T01:44:36.812Z,97498.13
2022-10-08T01:47:41.115Z,97495.28
2022-10-08T01:50:53.551Z,97495.72
2022-10-08T01:53:55.982Z,97493.25
2022-10-08T01:57:01.157Z,97491.22
2022-10-08T02:00:12.419Z,97492.69
2022-10-08T02:03:13.953Z,97488.38
2022-10-08T02:06:15.544Z,97477.09
2022-10-08T02:09:17.418Z,97485.63
2022-10-08T02:12:20.841Z,97466.75
2022-10-08T02:15:31.512Z,97479.81
2022-10-08T02:18:51.864Z,97478.81
2022-10-08T02:21:56.212Z,97478.63
2022-10-08T02:25:16.725Z,97485.00
2022-10-08T02:28:37.318Z,97478.28
2022-10-08T02:31:54.674Z,97480.25
2022-10-08T02:35:04.859Z,97473.72
2022-10-08T02:38:11.572Z,97479.91
2022-10-08T02:41:15.278Z,97481.16
2022-10-08T02:44:40.299Z,97475.03
2022-10-08T02:47:44.325Z,97480.38
2022-10-08T02:50:49.796Z,97482.47
2022-10-08T02:53:51.428Z,97481.91
2022-10-08T02:56:59.273Z,97481.31
2022-10-08T03:00:00.834Z,97483.97
2022-10-08T03:03:16.176Z,97485.81
2022-10-08T03:06:18.498Z,97491.31
2022-10-08T03:09:23.399Z,97477.41
2022-10-08T03:12:25.859Z,97482.53
2022-10-08T03:15:28.338Z,97478.41
2022-10-08T03:18:29.845Z,97493.59
2022-10-08T03:21:31.962Z,97485.75
2022-10-08T03:24:35.047Z,97486.78
2022-10-08T03:27:36.588Z,97491.00
2022-10-08T03:30:38.132Z,97491.59
2022-10-08T03:33:39.605Z,97489.31
2022-10-08T03:36:41.164Z,97490.34
2022-10-08T03:39:43.212Z,97494.25
2022-10-08T03:42:45.030Z,97487.28
2022-10-08T03:45:54.083Z,97491.41
2022-10-08T03:48:55.649Z,97490.19
2022-10-08T03:51:57.184Z,97496.91
2022-10-08T03:54:58.696Z,97501.84
2022-10-08T03:58:00.119Z,97491.66
2022-10-08T04:01:04.512Z,97494.31
2022-10-08T04:04:06.019Z,97494.31
2022-10-08T04:07:07.534Z,97478.75
2022-10-08T04:10:09.199Z,97497.84
2022-10-08T04:13:10.677Z,97505.25
2022-10-08T04:16:17.218Z,97486.44
2022-10-08T04:19:18.792Z,97501.41
2022-10-08T04:22:20.348Z,97499.00
2022-10-08T04:25:21.808Z,97489.78
2022-10-08T04:28:23.944Z,97498.41
2022-10-08T04:31:25.594Z,97499.88
2022-10-08T04:34:27.135Z,97496.81
2022-10-08T04:37:28.894Z,97493.94
2022-10-08T04:40:30.365Z,97504.41
2022-10-08T04:43:32.487Z,97506.88
2022-10-08T04:46:34.131Z,97500.75
2022-10-08T04:49:35.710Z,97504.41
2022-10-08T04:52:37.209Z,97507.69
2022-10-08T04:55:38.729Z,97511.94
2022-10-08T04:58:41.222Z,97516.66
2022-10-08T05:01:42.799Z,97509.28
2022-10-08T05:04:44.338Z,97520.13
2022-10-08T05:07:45.824Z,97521.78
2022-10-08T05:10:48.989Z,97518.31
2022-10-08T05:13:52.244Z,97516.66
2022-10-08T05:16:53.684Z,97524.44
2022-10-08T05:19:55.229Z,97520.56
2022-10-08T05:22:56.648Z,97519.16
2022-10-08T05:25:59.745Z,97531.25
2022-10-08T05:29:01.684Z,97524.09
2022-10-08T05:32:03.299Z,97531.06
2022-10-08T05:35:05.097Z,97512.63
2022-10-08T05:38:07.562Z,97520.00
2022-10-08T05:41:30.642Z,97532.13
2022-10-08T05:44:37.250Z,97529.47
2022-10-08T05:47:39.170Z,97528.22
2022-10-08T05:50:40.608Z,97536.41
2022-10-08T05:53:47.065Z,97539.50
2022-10-08T05:56:51.519Z,97545.25
2022-10-08T05:59:52.973Z,97543.44
2022-10-08T06:02:54.471Z,97548.94
2022-10-08T06:05:56.005Z,97553.88
2022-10-08T06:08:59.935Z,97549.56
2022-10-08T06:12:01.472Z,97560.41
2022-10-08T06:15:03.087Z,97562.88
2022-10-08T06:18:04.616Z,97571.91
2022-10-08T06:21:15.614Z,97575.63
2022-10-08T06:24:17.243Z,97582.84
2022-10-08T06:27:18.724Z,97574.72
2022-10-08T06:30:20.309Z,97582.09
2022-10-08T06:33:21.764Z,97585.19
2022-10-08T06:36:28.075Z,97588.94
2022-10-08T06:39:29.671Z,97596.53
2022-10-08T06:42:31.124Z,97590.19
2022-10-08T06:45:32.579Z,97601.22
2022-10-08T06:48:34.345Z,97606.91
2022-10-08T06:51:36.130Z,97610.00
2022-10-08T06:54:39.969Z,97613.72
2022-10-08T06:57:41.488Z,97608.00
2022-10-08T07:00:43.519Z,97611.53
2022-10-08T07:03:52.383Z,97620.19
2022-10-08T07:06:53.879Z,97624.09
2022-10-08T07:09:55.327Z,97628.22
2022-10-08T07:12:56.853Z,97625.84
2022-10-08T07:16:14.646Z,97628.53
2022-10-08T07:19:18.348Z,97633.28
2022-10-08T07:22:19.839Z,97636.44
2022-10-08T07:25:21.316Z,97642.44
2022-10-08T07:28:24.004Z,97631.38
2022-10-08T07:31:31.316Z,97640.63
2022-10-08T07:34:32.966Z,97627.66
2022-10-08T07:37:34.396Z,97642.03
2022-10-08T07:40:36.194Z,97644.88
2022-10-08T07:43:41.121Z,97650.19
2022-10-08T07:46:45.664Z,97659.19
2022-10-08T07:49:47.613Z,97661.63
2022-10-08T07:52:49.667Z,97654.84
2022-10-08T07:55:51.200Z,97658.78
2022-10-08T07:58:52.969Z,97663.53
2022-10-08T08:01:54.566Z,97652.66
2022-10-08T08:04:56.059Z,97655.78
2022-10-08T08:07:57.492Z,97662.75
2022-10-08T08:11:00.577Z,97660.91
2022-10-08T08:14:02.411Z,97668.78
2022-10-08T08:17:03.935Z,97662.84
2022-10-08T08:20:05.788Z,97672.72
2022-10-08T08:23:07.265Z,97666.34
2022-10-08T08:26:14.576Z,97671.25
2022-10-08T08:29:18.168Z,97675.53
2022-10-08T08:32:19.784Z,97670.63
2022-10-08T08:35:21.295Z,97676.97
2022-10-08T08:38:22.753Z,97689.72
2022-10-08T08:42:00.781Z,97693.44
2022-10-08T08:45:28.221Z,97695.91
2022-10-08T08:48:36.369Z,97689.53
2022-10-08T08:51:37.837Z,97704.53
2022-10-08T08:54:39.545Z,97701.44
2022-10-08T08:58:10.024Z,97702.44
2022-10-08T09:01:36.061Z,97702.22
2022-10-08T09:04:49.678Z,97707.72
2022-10-08T09:07:59.983Z,97684.59
2022-10-08T09:11:03.943Z,97700.56
2022-10-08T09:14:08.112Z,97708.59
2022-10-08T09:17:28.153Z,97700.06
2022-10-08T09:20:30.535Z,97690.03
2022-10-08T09:23:32.032Z,97699.56
2022-10-08T09:26:35.128Z,97695.47
2022-10-08T09:29:37.480Z,97709.56
2022-10-08T09:32:39.059Z,97716.50
2022-10-08T09:35:44.965Z,97709.56
2022-10-08T09:38:58.435Z,97713.22
2022-10-08T09:42:17.659Z,97711.56
2022-10-08T09:45:40.202Z,97724.75
2022-10-08T09:48:43.254Z,97726.75
2022-10-08T09:51:45.010Z,97738.84
2022-10-08T09:55:01.356Z,97731.50
2022-10-08T09:58:04.160Z,97721.97
2022-10-08T10:01:16.925Z,97732.13
2022-10-08T10:04:38.675Z,97723.97
2022-10-08T10:07:43.074Z,97725.31
2022-10-08T10:10:45.843Z,97726.69
2022-10-08T10:13:51.204Z,97722.72
2022-10-08T10:17:00.747Z,97729.34
2022-10-08T10:20:06.124Z,97725.69
2022-10-08T10:23:41.208Z,97725.19
2022-10-08T10:26:54.432Z,97721.56
2022-10-08T10:29:55.980Z,97727.56
2022-10-08T10:33:13.253Z,97724.25
2022-10-08T10:36:18.290Z,97726.72
2022-10-08T10:39:41.296Z,97726.59
2022-10-08T10:43:18.233Z,97718.31
2022-10-08T10:46:36.618Z,97732.63
2022-10-08T10:49:42.372Z,97721.97
2022-10-08T10:53:08.554Z,97732.16
2022-10-08T10:56:17.302Z,97730.53
2022-10-08T10:59:31.015Z,97745.97
2022-10-08T11:02:51.698Z,97738.75
2022-10-08T11:06:31.750Z,97737.88
2022-10-08T11:09:44.090Z,97751.44
2022-10-08T11:12:59.113Z,97745.25
2022-10-08T11:16:25.278Z,97752.88
2022-10-08T11:19:36.864Z,97743.13
2022-10-08T11:23:07.084Z,97734.06
2022-10-08T11:26:35.851Z,97739.34
2022-10-08T11:29:51.674Z,97747.13
2022-10-08T11:32:57.522Z,97739.88
2022-10-08T11:36:17.510Z,97753.94
2022-10-08T11:39:27.337Z,97751.88
2022-10-08T11:42:42.914Z,97749.41
2022-10-08T11:45:46.637Z,97738.38
2022-10-08T11:48:50.185Z,97730.03
2022-10-08T11:51:56.369Z,97726.91
2022-10-08T11:55:00.945Z,97728.81
2022-10-08T11:58:08.032Z,97740.78
2022-10-08T12:01:10.837Z,97726.09
2022-10-08T12:04:21.968Z,97730.22
2022-10-08T12:07:28.639Z,97740.19
2022-10-08T12:10:34.399Z,97734.66
2022-10-08T12:13:35.865Z,97731.47
2022-10-08T12:16:55.545Z,97738.16
2022-10-08T12:20:02.128Z,97733.97
2022-10-08T12:23:10.565Z,97726.41
2022-10-08T12:26:14.348Z,97723.75
2022-10-08T12:29:28.088Z,97721.31
2022-10-08T12:32:32.347Z,97729.31
2022-10-08T12:35:40.420Z,97727.06
2022-10-08T12:38:51.132Z,97723.66
2022-10-08T12:42:20.785Z,97728.84
2022-10-08T12:45:34.300Z,97731.97
2022-10-08T12:48:46.637Z,97725.97
2022-10-08T12:51:57.056Z,97737.66
2022-10-08T12:55:01.649Z,97738.56
2022-10-08T12:58:03.322Z,97737.47
2022-10-08T13:01:06.009Z,97726.97
2022-10-08T13:04:09.309Z,97732.81
2022-10-08T13:07:23.892Z,97740.09
2022-10-08T13:10:29.484Z,97738.16
2022-10-08T13:13:40.129Z,97742.66
2022-10-08T13:16:47.941Z,97739.38
2022-10-08T13:20:04.981Z,97742.97
2022-10-08T13:23:45.095Z,97748.91
2022-10-08T13:26:54.796Z,97743.47
2022-10-08T13:29:57.244Z,97742.13
2022-10-08T13:33:04.044Z,97744.38
2022-10-08T13:36:05.749Z,97748.56
2022-10-08T13:39:19.741Z,97753.03
2022-10-08T13:42:24.701Z,97753.47
2022-10-08T13:45:36.848Z,97757.78
2022-10-08T13:48:43.316Z,97755.22
2022-10-08T13:51:44.795Z,97762.25
2022-10-08T13:54:47.253Z,97752.13
2022-10-08T13:57:49.053Z,97749.66
2022-10-08T14:00:50.996Z,97744.44
2022-10-08T14:03:52.492Z,97744.63
2022-10-08T14:06:56.488Z,97739.28
2022-10-08T14:09:59.715Z,97729.91
2022-10-08T14:13:01.212Z,97737.00
2022-10-08T14:16:02.681Z,97742.44
2022-10-08T14:19:06.563Z,97745.41
2022-10-08T14:22:12.266Z,97736.53
2022-10-08T14:25:19.761Z,97735.50
2022-10-08T14:28:21.281Z,97747.28
2022-10-08T14:31:22.875Z,97738.78
2022-10-08T14:34:27.426Z,97738.50
2022-10-08T14:37:29.453Z,97739.25
2022-10-08T14:40:30.940Z,97735.06
2022-10-08T14:43:32.417Z,97733.47
2022-10-08T14:46:33.990Z,97731.59
2022-10-08T14:49:35.460Z,97724.84
2022-10-08T14:52:41.710Z,97725.31
2022-10-08T14:56:10.612Z,97724.13
2022-10-08T14:59:07.541Z,97719.53
2022-10-08T15:02:11.011Z,97730.50
2022-10-08T15:05:12.528Z,97729.41
2022-10-08T15:08:14.048Z,97721.03
2022-10-08T15:11:15.652Z,97722.03
2022-10-08T15:14:17.212Z,97717.50
2022-10-08T15:17:18.660Z,97719.22
2022-10-08T15:20:20.185Z,97714.25
2022-10-08T15:23:22.789Z,97716.31
2022-10-08T15:26:24.383Z,97718.69
2022-10-08T15:29:25.947Z,97716.22
2022-10-08T15:32:30.495Z,97719.63
2022-10-08T15:35:35.638Z,97724.06
2022-10-08T15:38:37.078Z,97718.63
2022-10-08T15:41:41.940Z,97721.38
2022-10-08T15:44:43.961Z,97723.66
2022-10-08T15:47:48.814Z,97727.72
2022-10-08T15:51:00.305Z,97734.47
2022-10-08T15:54:02.854Z,97736.44
2022-10-08T15:57:05.619Z,97741.94
2022-10-08T16:00:07.817Z,97740.66
2022-10-08T16:03:13.380Z,97752.47
2022-10-08T16:06:17.103Z,97745.78
2022-10-08T16:09:22.192Z,97745.00
2022-10-08T16:12:23.701Z,97745.44
2022-10-08T16:15:25.207Z,97759.59
2022-10-08T16:18:26.703Z,97755.06
2022-10-08T16:21:30.600Z,97759.75
2022-10-08T16:24:32.143Z,97761.94
2022-10-08T16:27:33.674Z,97760.22
2022-10-08T16:30:35.729Z,97755.69
2022-10-08T16:33:37.470Z,97762.59
2022-10-08T16:36:39.579Z,97764.63
2022-10-08T16:39:41.339Z,97769.72
2022-10-08T16:42:42.853Z,97779.66
2022-10-08T16:45:44.411Z,97768.50
2022-10-08T16:49:04.369Z,97783.34
2022-10-08T16:52:08.110Z,97780.53
2022-10-08T16:55:09.629Z,97791.81
2022-10-08T16:58:11.210Z,97797.19
2022-10-08T17:01:12.755Z,97802.72
2022-10-08T17:04:15.534Z,97804.03
2022-10-08T17:07:17.140Z,97795.63
2022-10-08T17:10:18.613Z,97813.53
2022-10-08T17:13:20.710Z,97815.81
2022-10-08T17:16:24.340Z,97822.44
2022-10-08T17:19:25.895Z,97819.22
2022-10-08T17:22:27.340Z,97821.84
2022-10-08T17:25:28.818Z,97830.91
2022-10-08T17:28:32.785Z,97839.03
2022-10-08T17:31:35.571Z,97843.44
2022-10-08T17:34:37.324Z,97840.81
2022-10-08T17:37:38.772Z,97850.03
2022-10-08T17:40:49.866Z,97851.97
2022-10-08T17:44:02.178Z,97856.81
2022-10-08T17:47:03.660Z,97861.00
2022-10-08T17:50:05.559Z,97860.38
2022-10-08T17:53:07.053Z,97868.22
2022-10-08T17:56:11.288Z,97863.63
2022-10-08T17:59:17.921Z,97867.81
2022-10-08T18:02:19.464Z,97857.94
2022-10-08T18:05:20.996Z,97862.16
2022-10-08T18:08:22.479Z,97866.97
2022-10-08T18:11:25.599Z,97878.22
2022-10-08T18:14:27.104Z,97878.13
2022-10-08T18:17:28.554Z,97875.31
2022-10-08T18:20:30.062Z,97876.66
2022-10-08T18:23:33.156Z,97886.63
2022-10-08T18:26:37.032Z,97888.47
2022-10-08T18:29:38.703Z,97891.16
2022-10-08T18:32:40.181Z,97890.84
2022-10-08T18:35:41.625Z,97899.13
2022-10-08T18:38:45.884Z,97900.31
2022-10-08T18:41:50.876Z,97907.75
2022-10-08T18:44:52.352Z,97914.88
2022-10-08T18:47:53.829Z,97908.25
2022-10-08T18:51:01.285Z,97912.22
2022-10-08T18:54:02.793Z,97920.50
2022-10-08T18:57:04.242Z,97922.47
2022-10-08T19:00:06.244Z,97925.13
2022-10-08T19:03:07.794Z,97918.34
2022-10-08T19:06:09.628Z,97926.09
2022-10-08T19:09:15.010Z,97927.72
2022-10-08T19:12:18.557Z,97929.22
2022-10-08T19:15:20.156Z,97930.84
2022-10-08T19:18:21.605Z,97937.97
2022-10-08T19:21:24.416Z,97947.22
2022-10-08T19:24:26.904Z,97956.75
2022-10-08T19:27:28.436Z,97950.97
2022-10-08T19:30:34.025Z,97950.59
2022-10-08T19:33:36.751Z,97942.63
2022-10-08T19:36:38.363Z,97957.31
2022-10-08T19:39:43.897Z,97958.47
2022-10-08T19:42:45.968Z,97950.84
2022-10-08T19:45:47.831Z,97957.16
2022-10-08T19:48:59.002Z,97971.66
2022-10-08T19:52:01.131Z,97968.50
2022-10-08T19:55:02.749Z,97965.34
2022-10-08T19:58:04.995Z,97974.56
2022-10-08T20:01:12.782Z,97981.16
2022-10-08T20:04:16.627Z,97978.53
2022-10-08T20:07:18.198Z,97970.22
2022-10-08T20:10:19.836Z,97977.19
2022-10-08T20:13:21.344Z,97970.06
2022-10-08T20:16:25.890Z,97969.72
2022-10-08T20:19:27.460Z,97981.44
2022-10-08T20:22:28.920Z,97972.16
2022-10-08T20:25:30.469Z,97963.97
2022-10-08T20:28:32.006Z,97978.16
2022-10-08T20:31:36.605Z,97975.16
2022-10-08T20:34:38.116Z,97979.91
2022-10-08T20:37:39.648Z,97983.03
2022-10-08T20:40:42.165Z,97974.88
2022-10-08T20:43:43.798Z,97980.31
2022-10-08T20:46:45.633Z,97980.78
2022-10-08T20:49:47.188Z,97980.28
2022-10-08T20:52:49.122Z,97983.06
2022-10-08T20:55:50.825Z,97979.91
2022-10-08T20:58:52.814Z,97977.16
2022-10-08T21:01:54.337Z,97982.25
2022-10-08T21:04:55.852Z,97983.50
2022-10-08T21:07:57.462Z,97983.84
2022-10-08T21:11:03.985Z,97974.38
2022-10-08T21:14:07.236Z,97980.00
2022-10-08T21:17:08.748Z,97970.00
2022-10-08T21:20:10.220Z,97976.69
2022-10-08T21:23:11.709Z,97970.00
2022-10-08T21:26:25.006Z,97972.97
2022-10-08T21:29:26.524Z,97975.91
2022-10-08T21:32:31.069Z,97970.91
2022-10-08T21:35:36.139Z,97964.16
2022-10-08T21:38:37.903Z,97966.41
2022-10-08T21:41:39.384Z,97968.50
2022-10-08T21:44:40.900Z,97969.78
2022-10-08T21:47:42.435Z,97967.75
2022-10-08T21:50:43.888Z,97967.75
2022-10-08T21:53:47.464Z,97958.47
2022-10-08T21:56:48.918Z,97963.06
2022-10-08T21:59:50.421Z,97965.00
2022-10-08T22:02:51.936Z,97964.31
2022-10-08T22:05:59.626Z,97954.38
2022-10-08T22:09:01.188Z,97956.00
2022-10-08T22:12:02.844Z,97958.41
2022-10-08T22:15:04.542Z,97952.59
2022-10-08T22:18:06.115Z,97960.66
2022-10-08T22:21:11.027Z,97956.81
2022-10-08T22:24:13.040Z,97950.47
2022-10-08T22:27:14.513Z,97948.50
2022-10-08T22:30:16.096Z,97944.34
2022-10-08T22:33:18.417Z,97949.63
2022-10-08T22:36:23.332Z,97941.19
2022-10-08T22:39:24.905Z,97939.38
2022-10-08T22:42:26.416Z,97931.22
2022-10-08T22:45:28.021Z,97938.31
2022-10-08T22:48:30.166Z,97936.78
2022-10-08T22:51:31.988Z,97937.78
2022-10-08T22:54:33.429Z,97928.72
2022-10-08T22:57:34.921Z,97918.78
2022-10-08T23:00:36.409Z,97926.41
2022-10-08T23:03:38.539Z,97926.25
2022-10-08T23:06:40.033Z,97920.59
2022-10-08T23:09:42.130Z,97917.25
2022-10-08T23:12:43.669Z,97920.06
2022-10-08T23:15:45.150Z,97921.16
2022-10-08T23:18:53.098Z,97916.22
2022-10-08T23:21:54.579Z,97917.72
2022-10-08T23:24:56.020Z,97910.09
2022-10-08T23:27:57.549Z,97914.81
2022-10-08T23:31:06.287Z,97913.47
2022-10-08T23:34:08.765Z,97907.94
2022-10-08T23:37:10.243Z,97906.16
2022-10-08T23:40:11.716Z,97906.84
2022-10-08T23:43:13.144Z,97900.47
2022-10-08T23:46:17.898Z,97899.34
2022-10-08T23:49:19.439Z,97894.94
2022-10-08T23:52:20.904Z,97891.75
2022-10-08T23:55:22.428Z,97893.00
2022-10-08T23:58:24.141Z,97890.00
